Time;durP1;ratioP1;P1;durP2;ratioP2;P2;SDS_P1;SDS_P2;PMS_P1;PMS_P2;Temp;Humidity;BMP_temperature;BMP_pressure;BME280_temperature;BME280_humidity;BME280_pressure;Samples;Min_cycle;Max_cycle;Signal;HPM_P1;HPM_P2
2021/10/04 00:00:54;;;;;;;1.93;1.80;;;15.50;99.90;;;;;;4993317;28;20184;-65
2021/10/04 00:03:20;;;;;;;1.30;1.20;;;15.30;99.90;;;;;;4995743;28;20319;-66
2021/10/04 00:05:45;;;;;;;2.43;1.90;;;15.20;99.90;;;;;;4995577;28;20897;-65
2021/10/04 00:08:11;;;;;;;1.27;1.17;;;15.00;99.90;;;;;;4995397;28;20254;-64
2021/10/04 00:10:36;;;;;;;1.60;1.50;;;15.20;99.90;;;;;;4995933;28;20179;-65
2021/10/04 00:13:02;;;;;;;3.57;1.67;;;15.30;99.90;;;;;;4995546;28;20184;-64
2021/10/04 00:15:29;;;;;;;1.47;1.37;;;15.40;99.90;;;;;;4995580;28;20179;-64
2021/10/04 00:17:56;;;;;;;1.40;1.30;;;15.40;99.90;;;;;;4995166;28;20660;-65
2021/10/04 00:20:22;;;;;;;1.80;1.70;;;15.50;99.90;;;;;;4995446;28;20423;-65
2021/10/04 00:22:48;;;;;;;1.93;1.80;;;15.50;99.90;;;;;;4995301;28;20848;-65
2021/10/04 00:25:14;;;;;;;1.70;1.60;;;15.40;99.90;;;;;;4995441;28;20438;-65
2021/10/04 00:27:40;;;;;;;1.67;1.57;;;15.30;99.90;;;;;;4995015;28;20485;-65
2021/10/04 00:30:07;;;;;;;2.70;1.50;;;15.30;99.90;;;;;;4995296;28;20823;-65
2021/10/04 00:32:36;;;;;;;10.33;1.77;;;15.30;99.90;;;;;;4995224;28;20168;-64
2021/10/04 00:35:02;;;;;;;2.93;1.77;;;15.30;99.90;;;;;;4995246;28;20462;-64
2021/10/04 00:37:28;;;;;;;2.13;1.50;;;15.40;99.90;;;;;;4994579;28;20457;-65
2021/10/04 00:39:53;;;;;;;2.07;1.67;;;15.40;99.90;;;;;;4995142;28;20427;-64
2021/10/04 00:42:21;;;;;;;2.53;1.60;;;15.40;99.90;;;;;;4995117;28;20209;-65
2021/10/04 00:44:48;;;;;;;1.60;1.50;;;15.30;99.90;;;;;;4994937;28;20203;-65
2021/10/04 00:47:15;;;;;;;1.50;1.40;;;15.40;99.90;;;;;;4994685;28;20455;-64
2021/10/04 00:49:40;;;;;;;2.33;1.63;;;15.30;99.90;;;;;;4994884;28;20423;-65
2021/10/04 00:52:06;;;;;;;1.40;1.30;;;15.40;99.90;;;;;;4995017;28;20430;-64
2021/10/04 00:54:32;;;;;;;2.37;1.40;;;15.40;99.90;;;;;;4994846;28;20542;-64
2021/10/04 00:56:57;;;;;;;2.27;1.53;;;15.40;99.90;;;;;;4994823;28;20195;-64
2021/10/04 00:59:23;;;;;;;1.83;1.73;;;15.40;99.90;;;;;;4994498;28;20646;-65
2021/10/04 01:01:48;;;;;;;1.63;1.53;;;15.40;99.90;;;;;;4994634;28;20179;-64
2021/10/04 01:04:14;;;;;;;1.63;1.53;;;15.50;99.90;;;;;;4994658;28;20270;-65
2021/10/04 01:06:40;;;;;;;2.10;1.90;;;15.30;99.90;;;;;;4993213;28;20192;-65
2021/10/04 01:09:05;;;;;;;1.73;1.40;;;15.40;99.90;;;;;;4994354;28;20176;-65
2021/10/04 01:11:31;;;;;;;2.70;1.53;;;15.40;99.90;;;;;;4994076;28;20172;-65
2021/10/04 01:13:57;;;;;;;1.43;1.33;;;15.30;99.90;;;;;;4994500;28;20210;-65
2021/10/04 01:16:23;;;;;;;1.63;1.53;;;15.30;99.90;;;;;;4994329;28;20478;-65
2021/10/04 01:18:48;;;;;;;2.40;1.73;;;15.30;99.90;;;;;;4994136;28;20694;-65
2021/10/04 01:21:14;;;;;;;2.37;1.80;;;15.20;99.90;;;;;;4994246;28;20185;-65
2021/10/04 01:23:39;;;;;;;1.63;1.53;;;15.20;99.90;;;;;;4994323;28;20566;-65
2021/10/04 01:26:05;;;;;;;2.20;1.20;;;15.10;99.90;;;;;;4994310;28;20274;-65
2021/10/04 01:28:30;;;;;;;1.30;1.20;;;15.00;99.90;;;;;;4993935;28;20238;-65
2021/10/04 01:30:56;;;;;;;2.23;1.27;;;15.00;99.90;;;;;;4994058;28;20652;-65
2021/10/04 01:33:22;;;;;;;2.07;1.40;;;14.90;99.90;;;;;;4994135;28;20163;-65
2021/10/04 01:35:48;;;;;;;1.10;1.10;;;14.90;99.90;;;;;;4993913;28;20172;-64
2021/10/04 01:38:13;;;;;;;1.23;1.13;;;14.90;99.90;;;;;;4993803;28;20207;-65
2021/10/04 01:40:41;;;;;;;2.57;1.50;;;14.90;99.90;;;;;;4993976;28;20176;-65
2021/10/04 01:43:06;;;;;;;1.53;1.43;;;14.80;99.90;;;;;;4993890;28;20243;-65
2021/10/04 01:45:32;;;;;;;1.60;1.50;;;14.80;99.90;;;;;;4993793;28;20423;-64
2021/10/04 01:48:01;;;;;;;1.30;1.13;;;14.80;99.90;;;;;;4993459;28;20692;-65
2021/10/04 01:50:30;;;;;;;2.03;1.23;;;14.90;99.90;;;;;;4993700;28;20204;-66
2021/10/04 01:52:56;;;;;;;1.63;1.20;;;14.90;99.90;;;;;;4993737;28;20518;-64
2021/10/04 01:55:22;;;;;;;1.13;1.00;;;14.90;99.90;;;;;;4993711;28;20446;-65
2021/10/04 01:57:48;;;;;;;1.20;1.10;;;14.90;99.90;;;;;;4993337;28;20457;-65
2021/10/04 02:00:17;;;;;;;1.77;1.20;;;14.90;99.90;;;;;;4993533;28;20979;-65
2021/10/04 02:02:46;;;;;;;1.43;1.00;;;15.00;99.90;;;;;;4993681;28;20667;-64
2021/10/04 02:05:11;;;;;;;1.40;1.30;;;14.90;99.90;;;;;;4993593;28;20476;-64
2021/10/04 02:07:37;;;;;;;1.80;1.63;;;14.90;99.90;;;;;;4993253;28;20435;-65
2021/10/04 02:10:28;;;;;;;1.53;1.43;;;14.90;99.90;;;;;;4993451;28;20186;-65
2021/10/04 02:12:56;;;;;;;1.20;1.10;;;14.80;99.90;;;;;;4993392;28;20171;-64
2021/10/04 02:15:22;;;;;;;1.70;1.60;;;14.70;99.90;;;;;;4993341;28;20786;-65
2021/10/04 02:17:48;;;;;;;1.80;1.13;;;14.50;99.90;;;;;;4992905;28;20867;-65
2021/10/04 02:20:17;;;;;;;1.77;1.10;;;14.40;99.90;;;;;;4993222;28;20482;-65
2021/10/04 02:22:43;;;;;;;1.60;1.13;;;14.30;99.90;;;;;;4992762;28;20230;-64
2021/10/04 02:25:09;;;;;;;1.40;1.30;;;14.20;99.90;;;;;;4992702;28;20427;-66
2021/10/04 02:27:35;;;;;;;1.10;1.00;;;14.10;99.90;;;;;;4992805;28;20605;-64
2021/10/04 02:30:01;;;;;;;1.20;1.10;;;14.20;99.90;;;;;;4992987;28;20489;-65
2021/10/04 02:32:27;;;;;;;1.00;0.90;;;14.10;99.90;;;;;;4993123;28;20226;-65
2021/10/04 02:34:52;;;;;;;1.03;1.00;;;14.10;99.90;;;;;;4993026;28;20184;-65
2021/10/04 02:37:18;;;;;;;1.27;1.17;;;14.10;99.90;;;;;;4992591;28;20219;-64
2021/10/04 02:39:43;;;;;;;1.47;1.20;;;14.10;99.90;;;;;;4992891;28;20183;-65
2021/10/04 02:42:09;;;;;;;0.80;0.80;;;14.10;99.90;;;;;;4992964;28;20645;-64
2021/10/04 02:44:34;;;;;;;1.40;1.30;;;14.10;99.90;;;;;;4991630;28;20211;-65
2021/10/04 02:47:00;;;;;;;1.93;1.10;;;14.00;99.90;;;;;;4992791;28;20195;-65
2021/10/04 02:49:26;;;;;;;1.00;0.83;;;13.90;99.90;;;;;;4992567;28;20172;-65
2021/10/04 02:51:51;;;;;;;1.20;1.10;;;13.90;99.90;;;;;;4992828;28;20187;-64
2021/10/04 02:54:17;;;;;;;1.27;1.17;;;13.90;99.90;;;;;;4992735;28;20176;-65
2021/10/04 02:56:43;;;;;;;1.30;1.20;;;13.90;99.90;;;;;;4992729;28;20203;-65
2021/10/04 02:59:11;;;;;;;1.13;1.03;;;13.80;99.90;;;;;;4992411;28;20430;-64
2021/10/04 03:01:37;;;;;;;0.97;0.97;;;13.70;99.90;;;;;;4992718;28;20172;-64
2021/10/04 03:04:03;;;;;;;1.93;1.30;;;13.70;99.90;;;;;;4992552;28;20537;-65
2021/10/04 03:06:28;;;;;;;0.87;0.87;;;13.70;99.90;;;;;;4992564;28;21023;-65
2021/10/04 03:08:54;;;;;;;1.20;1.00;;;13.70;99.90;;;;;;4992317;28;20520;-65
2021/10/04 03:11:19;;;;;;;1.40;1.30;;;13.60;99.90;;;;;;4992640;28;20179;-64
2021/10/04 03:13:45;;;;;;;1.20;1.10;;;13.60;99.90;;;;;;4992649;28;20234;-65
2021/10/04 03:16:10;;;;;;;1.03;0.93;;;13.60;99.90;;;;;;4992535;28;20220;-65
2021/10/04 03:18:36;;;;;;;1.30;1.20;;;13.60;99.90;;;;;;4992262;28;20546;-64
2021/10/04 03:21:02;;;;;;;1.83;0.97;;;13.70;99.90;;;;;;4992561;28;20188;-65
2021/10/04 03:23:28;;;;;;;1.10;1.00;;;13.80;99.90;;;;;;4992339;28;20609;-65
2021/10/04 03:25:53;;;;;;;1.07;0.97;;;13.90;99.90;;;;;;4992625;28;20525;-65
2021/10/04 03:28:20;;;;;;;1.73;1.63;;;14.00;99.90;;;;;;4992350;28;20172;-65
2021/10/04 03:30:46;;;;;;;2.23;1.20;;;14.00;99.90;;;;;;4992411;28;20167;-64
2021/10/04 03:33:11;;;;;;;1.70;1.60;;;14.00;99.90;;;;;;4992348;28;20437;-64
2021/10/04 03:35:37;;;;;;;1.43;1.33;;;14.10;99.90;;;;;;4994775;28;20419;-65
2021/10/04 03:38:03;;;;;;;1.40;1.30;;;14.10;99.90;;;;;;4995868;28;20217;-65
2021/10/04 03:40:28;;;;;;;1.73;1.60;;;14.10;99.90;;;;;;4996236;28;20187;-64
2021/10/04 03:42:54;;;;;;;1.77;1.10;;;14.10;99.90;;;;;;4996067;28;20610;-65
2021/10/04 03:45:19;;;;;;;0.97;0.97;;;14.00;99.90;;;;;;4996159;28;20160;-65
2021/10/04 03:47:46;;;;;;;4.10;1.20;;;13.90;99.90;;;;;;4995723;28;20274;-65
2021/10/04 03:50:13;;;;;;;4.13;1.07;;;13.70;99.90;;;;;;4996088;28;20259;-65
2021/10/04 03:52:39;;;;;;;1.17;1.03;;;13.60;99.90;;;;;;4995853;28;20415;-64
2021/10/04 03:55:07;;;;;;;1.63;1.30;;;13.50;99.90;;;;;;4995912;28;20423;-64
2021/10/04 03:57:33;;;;;;;1.67;1.30;;;13.60;99.90;;;;;;4995587;28;20795;-65
2021/10/04 03:59:59;;;;;;;2.37;1.27;;;13.60;99.90;;;;;;4995861;28;20472;-65
2021/10/04 04:02:24;;;;;;;1.83;1.10;;;13.60;99.90;;;;;;4995770;28;20422;-65
2021/10/04 04:04:50;;;;;;;1.50;1.00;;;13.70;99.90;;;;;;4995632;28;20210;-65
2021/10/04 04:07:15;;;;;;;1.90;1.80;;;13.50;99.90;;;;;;4995347;28;20668;-64
2021/10/04 04:09:41;;;;;;;1.80;1.67;;;13.60;99.90;;;;;;4995638;28;20250;-65
2021/10/04 04:12:07;;;;;;;0.80;0.80;;;13.70;99.90;;;;;;4995668;28;20164;-64
2021/10/04 04:14:32;;;;;;;1.33;1.00;;;13.80;99.90;;;;;;4995642;28;20307;-64
2021/10/04 04:16:58;;;;;;;1.10;1.00;;;13.80;99.90;;;;;;4995464;28;20187;-64
2021/10/04 04:19:24;;;;;;;1.90;1.40;;;13.80;99.90;;;;;;4995293;28;20712;-65
2021/10/04 04:21:49;;;;;;;1.33;1.23;;;13.80;99.90;;;;;;4995386;28;20202;-64
2021/10/04 04:24:17;;;;;;;2.10;1.00;;;13.90;99.90;;;;;;4995377;28;20258;-65
2021/10/04 04:26:43;;;;;;;1.43;1.20;;;13.70;99.90;;;;;;4995411;28;20656;-65
2021/10/04 04:29:08;;;;;;;1.30;1.20;;;13.60;99.90;;;;;;4995040;28;20415;-65
2021/10/04 04:31:34;;;;;;;3.10;1.50;;;13.60;99.90;;;;;;4994723;28;20517;-64
2021/10/04 04:33:59;;;;;;;2.70;1.73;;;13.70;99.90;;;;;;4984328;28;20190;-64
2021/10/04 04:36:25;;;;;;;1.50;1.37;;;13.70;99.90;;;;;;5012711;23;20274;-63
2021/10/04 04:38:50;;;;;;;1.93;1.50;;;13.80;99.90;;;;;;5008140;28;20185;-63
2021/10/04 04:41:16;;;;;;;1.50;1.40;;;13.70;99.90;;;;;;5014423;28;20171;-63
2021/10/04 04:43:42;;;;;;;1.30;1.03;;;13.80;99.90;;;;;;5014421;28;20309;-63
2021/10/04 04:46:07;;;;;;;1.43;1.33;;;13.90;99.90;;;;;;5013518;28;20190;-63
2021/10/04 04:48:33;;;;;;;1.60;1.50;;;13.90;99.90;;;;;;5014124;28;20171;-63
2021/10/04 04:50:58;;;;;;;1.60;1.50;;;14.00;99.90;;;;;;5014200;28;20171;-63
2021/10/04 04:53:24;;;;;;;1.60;1.20;;;14.00;99.90;;;;;;5014229;28;20170;-63
2021/10/04 04:55:49;;;;;;;1.60;1.50;;;14.00;99.90;;;;;;5014260;28;20179;-62
2021/10/04 04:58:15;;;;;;;3.00;2.80;;;14.10;99.90;;;;;;5013896;28;20656;-63
2021/10/04 05:00:40;;;;;;;4.40;4.00;;;14.00;99.90;;;;;;5014051;28;20379;-63
2021/10/04 05:03:08;;;;;;;4.00;3.60;;;14.00;99.90;;;;;;5014028;28;20230;-63
2021/10/04 05:05:33;;;;;;;4.57;4.17;;;14.00;99.90;;;;;;5013962;28;20256;-63
2021/10/04 05:07:59;;;;;;;3.40;3.03;;;14.00;99.90;;;;;;5013702;28;20491;-63
2021/10/04 05:10:24;;;;;;;3.00;2.80;;;14.00;99.90;;;;;;5013909;28;20252;-63
2021/10/04 05:12:50;;;;;;;3.30;3.00;;;14.00;99.90;;;;;;5013905;28;20257;-63
2021/10/04 05:15:15;;;;;;;3.53;3.20;;;14.10;99.90;;;;;;5013765;28;20193;-63
2021/10/04 05:17:41;;;;;;;3.83;3.53;;;14.10;99.90;;;;;;5013491;28;20249;-63
2021/10/04 05:20:08;;;;;;;2.33;2.13;;;14.00;99.90;;;;;;5013680;28;20199;-63
2021/10/04 05:22:37;;;;;;;1.83;1.73;;;14.10;99.90;;;;;;5013620;28;20835;-63
2021/10/04 05:25:07;;;;;;;2.10;1.80;;;14.10;99.90;;;;;;5013626;28;20867;-62
2021/10/04 05:27:32;;;;;;;2.13;2.00;;;14.10;99.90;;;;;;5013344;28;20438;-63
2021/10/04 05:29:58;;;;;;;2.60;1.83;;;14.10;99.90;;;;;;5013536;28;20969;-63
2021/10/04 05:32:24;;;;;;;2.07;1.90;;;14.00;99.90;;;;;;5013629;28;20510;-63
2021/10/04 05:34:50;;;;;;;4.20;3.80;;;13.90;99.90;;;;;;5013561;28;20188;-63
2021/10/04 05:37:16;;;;;;;2.10;1.90;;;13.80;99.90;;;;;;5013291;28;20519;-63
2021/10/04 05:39:41;;;;;;;2.47;2.27;;;13.90;99.90;;;;;;5013622;28;20234;-63
2021/10/04 05:42:07;;;;;;;4.20;2.67;;;13.90;99.90;;;;;;5013644;28;20636;-63
2021/10/04 05:44:33;;;;;;;3.53;3.23;;;13.80;99.90;;;;;;5013508;28;20199;-63
2021/10/04 05:46:58;;;;;;;4.30;3.90;;;13.60;99.90;;;;;;5012028;28;20195;-63
2021/10/04 05:49:24;;;;;;;2.57;2.07;;;13.60;99.90;;;;;;5013133;28;20691;-63
2021/10/04 05:51:49;;;;;;;2.93;2.40;;;13.50;99.90;;;;;;5013309;28;20270;-63
2021/10/04 05:54:15;;;;;;;2.80;2.60;;;13.50;99.90;;;;;;5013354;28;20179;-63
2021/10/04 05:56:40;;;;;;;4.57;1.90;;;13.50;99.90;;;;;;5013230;28;20565;-63
2021/10/04 05:59:06;;;;;;;3.43;2.47;;;13.50;99.90;;;;;;5012850;28;20190;-63
2021/10/04 06:01:31;;;;;;;3.50;1.97;;;13.50;99.90;;;;;;5013155;28;20163;-63
2021/10/04 06:03:57;;;;;;;1.70;1.50;;;13.70;99.90;;;;;;5013114;28;20667;-63
2021/10/04 06:06:23;;;;;;;2.60;2.20;;;13.80;99.90;;;;;;5012981;28;20183;-63
2021/10/04 06:08:48;;;;;;;3.30;1.70;;;13.90;99.90;;;;;;5012820;28;20171;-63
2021/10/04 06:11:14;;;;;;;1.60;1.50;;;13.80;99.90;;;;;;5013048;28;20202;-63
2021/10/04 06:13:39;;;;;;;3.60;1.27;;;13.80;99.90;;;;;;5012940;28;20221;-62
2021/10/04 06:16:05;;;;;;;3.53;1.90;;;13.80;99.90;;;;;;5012923;28;20185;-62
2021/10/04 06:18:31;;;;;;;3.83;2.77;;;13.80;99.90;;;;;;5012903;28;20273;-62
2021/10/04 06:20:56;;;;;;;2.80;2.60;;;13.80;99.90;;;;;;5012803;28;20579;-63
2021/10/04 06:23:22;;;;;;;4.40;2.93;;;13.80;99.90;;;;;;5009714;28;20195;-64
2021/10/04 06:25:47;;;;;;;5.30;3.23;;;13.80;99.90;;;;;;4999104;28;20175;-63
2021/10/04 06:28:13;;;;;;;2.80;2.50;;;13.90;99.90;;;;;;4979454;28;20207;-64
2021/10/04 06:30:39;;;;;;;4.67;3.70;;;14.00;99.90;;;;;;4966794;28;20187;-63
2021/10/04 06:33:04;;;;;;;6.10;2.80;;;14.00;99.90;;;;;;4993029;28;20558;-63
2021/10/04 06:35:30;;;;;;;3.50;2.87;;;14.00;99.90;;;;;;4993136;28;20200;-63
2021/10/04 06:37:56;;;;;;;2.30;2.20;;;14.00;99.90;;;;;;4991239;28;20723;-64
2021/10/04 06:40:21;;;;;;;3.00;2.20;;;14.00;99.90;;;;;;4997741;28;20536;-64
2021/10/04 06:42:47;;;;;;;2.40;2.20;;;14.10;99.90;;;;;;5012152;28;20185;-63
2021/10/04 06:45:13;;;;;;;3.53;3.23;;;14.10;99.90;;;;;;5012423;28;20203;-63
2021/10/04 06:47:39;;;;;;;7.43;6.73;;;14.20;99.90;;;;;;5011988;28;20191;-64
2021/10/04 06:50:06;;;;;;;2.60;2.50;;;14.20;99.90;;;;;;4992126;28;20947;-64
2021/10/04 06:52:31;;;;;;;2.67;2.17;;;14.10;99.90;;;;;;4992632;28;20182;-63
2021/10/04 06:54:59;;;;;;;2.50;2.30;;;14.10;99.90;;;;;;4992471;28;20427;-63
2021/10/04 06:57:24;;;;;;;8.07;2.40;;;14.10;99.90;;;;;;4992327;28;20187;-63
2021/10/04 06:59:50;;;;;;;2.07;1.87;;;14.10;99.90;;;;;;4990133;28;20438;-63
2021/10/04 07:02:15;;;;;;;1.83;1.73;;;14.20;99.90;;;;;;5007729;28;20533;-63
2021/10/04 07:04:41;;;;;;;1.50;1.40;;;14.30;99.90;;;;;;4992658;28;20566;-63
2021/10/04 07:07:07;;;;;;;2.00;1.80;;;14.30;99.90;;;;;;4992502;28;20191;-64
2021/10/04 07:09:33;;;;;;;2.20;2.00;;;14.30;99.90;;;;;;4991699;28;20225;-63
2021/10/04 07:11:59;;;;;;;2.37;1.80;;;14.30;99.90;;;;;;4999102;28;20896;-63
2021/10/04 07:14:25;;;;;;;2.67;2.30;;;14.30;99.90;;;;;;4998944;28;20203;-63
2021/10/04 07:16:51;;;;;;;3.70;2.90;;;14.20;99.90;;;;;;4998916;28;20870;-63
2021/10/04 07:19:16;;;;;;;2.83;2.63;;;14.30;99.90;;;;;;4996108;28;20266;-63
2021/10/04 07:21:42;;;;;;;2.70;2.50;;;14.40;99.90;;;;;;4999049;28;20175;-63
2021/10/04 07:24:10;;;;;;;2.57;2.37;;;14.60;99.90;;;;;;4998855;28;20274;-63
2021/10/04 07:26:36;;;;;;;4.60;2.90;;;14.60;99.90;;;;;;4998923;28;20206;-64
2021/10/04 07:29:04;;;;;;;3.47;2.93;;;14.60;99.90;;;;;;4995942;28;20787;-64
2021/10/04 07:31:29;;;;;;;4.00;2.63;;;14.60;99.90;;;;;;4998881;28;20178;-63
2021/10/04 07:33:55;;;;;;;3.23;3.00;;;14.50;99.90;;;;;;4998901;28;20434;-63
2021/10/04 07:36:21;;;;;;;2.70;2.50;;;14.70;99.90;;;;;;4998585;28;20259;-63
2021/10/04 07:38:46;;;;;;;3.23;3.03;;;14.60;99.90;;;;;;4995786;28;20183;-64
2021/10/04 07:41:12;;;;;;;2.50;2.30;;;14.60;99.90;;;;;;4998862;28;20207;-62
2021/10/04 07:43:37;;;;;;;3.07;2.87;;;14.40;99.90;;;;;;4998802;28;20195;-62
2021/10/04 07:46:06;;;;;;;2.77;2.57;;;14.30;99.90;;;;;;4998800;28;20168;-63
2021/10/04 07:48:32;;;;;;;2.60;2.43;;;14.30;99.90;;;;;;4995962;28;20245;-62
2021/10/04 07:50:57;;;;;;;3.20;2.83;;;14.30;99.90;;;;;;4998765;28;20422;-63
2021/10/04 07:53:23;;;;;;;6.90;5.10;;;14.30;99.90;;;;;;4998952;28;20944;-63
2021/10/04 07:55:49;;;;;;;3.20;2.90;;;14.20;99.90;;;;;;4994912;28;20688;-64
2021/10/04 07:58:14;;;;;;;3.10;2.90;;;14.20;99.90;;;;;;4992777;28;20285;-64
2021/10/04 08:00:40;;;;;;;3.20;2.90;;;14.30;99.90;;;;;;4995044;28;20179;-62
2021/10/04 08:03:06;;;;;;;2.73;2.53;;;14.20;99.90;;;;;;4995525;28;20190;-63
2021/10/04 08:05:32;;;;;;;3.60;3.20;;;14.10;99.90;;;;;;4995459;28;20171;-64
2021/10/04 08:07:57;;;;;;;6.13;4.83;;;14.10;99.90;;;;;;4994354;28;20445;-64
2021/10/04 08:10:23;;;;;;;6.20;3.70;;;14.10;99.90;;;;;;4993626;28;20418;-63
2021/10/04 08:12:49;;;;;;;2.70;2.50;;;14.20;99.90;;;;;;4995354;28;20210;-63
2021/10/04 08:15:15;;;;;;;3.20;2.90;;;14.20;99.90;;;;;;4995402;28;20882;-64
2021/10/04 08:17:41;;;;;;;3.73;2.83;;;14.30;99.90;;;;;;4994973;28;20699;-64
2021/10/04 08:20:08;;;;;;;2.87;2.67;;;14.50;99.90;;;;;;4992719;28;20430;-64
2021/10/04 08:22:35;;;;;;;2.73;2.30;;;14.50;99.90;;;;;;4991211;28;20531;-63
2021/10/04 08:25:01;;;;;;;2.07;1.97;;;14.60;99.90;;;;;;4992401;28;20954;-63
2021/10/04 08:27:27;;;;;;;3.30;3.10;;;14.60;99.90;;;;;;4991752;28;20454;-64
2021/10/04 08:29:52;;;;;;;2.40;2.23;;;14.60;99.90;;;;;;4989514;28;20500;-64
2021/10/04 08:32:18;;;;;;;1.80;1.70;;;14.50;99.90;;;;;;4992244;28;20261;-64
2021/10/04 08:34:43;;;;;;;2.30;2.10;;;14.50;99.90;;;;;;4992138;28;20184;-64
2021/10/04 08:37:09;;;;;;;2.03;1.93;;;14.30;99.90;;;;;;4991715;28;20215;-64
2021/10/04 08:39:35;;;;;;;2.77;2.07;;;14.40;99.90;;;;;;4988745;28;20600;-63
2021/10/04 08:42:01;;;;;;;3.07;2.83;;;14.30;99.90;;;;;;4991634;28;20273;-63
2021/10/04 08:44:27;;;;;;;2.47;2.27;;;14.40;99.90;;;;;;4991816;28;20211;-63
2021/10/04 08:46:53;;;;;;;2.50;2.30;;;14.40;99.90;;;;;;4991800;28;20932;-63
2021/10/04 08:49:19;;;;;;;1.97;1.87;;;14.40;99.90;;;;;;4988461;28;20465;-63
2021/10/04 08:51:47;;;;;;;1.90;1.80;;;14.30;99.90;;;;;;4991671;28;20819;-63
2021/10/04 08:54:13;;;;;;;1.80;1.70;;;14.40;99.90;;;;;;4991805;28;20434;-63
2021/10/04 08:56:39;;;;;;;2.37;1.77;;;14.40;99.90;;;;;;4991549;28;21104;-63
2021/10/04 08:59:05;;;;;;;1.50;1.40;;;14.60;99.90;;;;;;4988760;28;20187;-63
2021/10/04 09:01:31;;;;;;;2.80;1.80;;;14.60;99.90;;;;;;4991437;28;20427;-63
2021/10/04 09:03:59;;;;;;;3.00;1.67;;;14.60;99.90;;;;;;4991406;28;20281;-63
2021/10/04 09:06:33;;;;;;;3.47;3.17;;;14.50;99.90;;;;;;4991276;28;20827;-64
2021/10/04 09:09:07;;;;;;;1.93;1.73;;;14.70;99.90;;;;;;4988601;28;21062;-63
2021/10/04 09:11:39;;;;;;;1.73;1.53;;;14.80;99.90;;;;;;4991586;28;20418;-63
2021/10/04 09:14:15;;;;;;;1.73;1.63;;;14.80;99.90;;;;;;4991009;28;20450;-63
2021/10/04 09:16:50;;;;;;;1.37;1.27;;;14.60;99.90;;;;;;4991176;28;20438;-64
2021/10/04 09:19:21;;;;;;;1.60;1.50;;;14.60;99.90;;;;;;4990958;28;20430;-63
2021/10/04 09:22:04;;;;;;;1.40;1.30;;;14.70;99.90;;;;;;4990928;28;20427;-63
2021/10/04 09:24:30;;;;;;;1.20;1.10;;;14.80;99.90;;;;;;4989641;28;20835;-64
2021/10/04 09:26:56;;;;;;;1.57;1.43;;;14.80;99.90;;;;;;4990905;28;20443;-64
2021/10/04 09:29:24;;;;;;;1.50;1.40;;;14.80;99.90;;;;;;4990877;28;20187;-64
2021/10/04 09:31:51;;;;;;;1.60;1.10;;;14.90;99.90;;;;;;4991174;28;20278;-63
2021/10/04 09:34:27;;;;;;;1.10;1.03;;;14.80;99.90;;;;;;4990274;28;20414;-64
2021/10/04 09:36:55;;;;;;;1.60;1.43;;;15.00;99.90;;;;;;4990807;28;20462;-63
2021/10/04 09:39:29;;;;;;;1.20;1.10;;;15.00;99.90;;;;;;4990506;28;20433;-63
2021/10/04 09:42:12;;;;;;;1.70;1.20;;;14.80;99.90;;;;;;4991007;28;20461;-63
2021/10/04 09:45:01;;;;;;;1.03;1.00;;;14.90;99.90;;;;;;4990447;28;20539;-64
2021/10/04 09:47:40;;;;;;;3.53;1.60;;;15.00;99.90;;;;;;4990346;28;20447;-63
2021/10/04 09:50:10;;;;;;;1.00;1.00;;;15.00;99.90;;;;;;4990447;28;20447;-64
2021/10/04 09:52:58;;;;;;;1.87;1.40;;;15.10;99.90;;;;;;4990742;28;20415;-63
2021/10/04 09:55:27;;;;;;;1.70;1.50;;;15.10;99.90;;;;;;4990474;28;20414;-64
2021/10/04 09:58:03;;;;;;;1.80;1.70;;;15.10;99.90;;;;;;4990189;28;20491;-64
2021/10/04 10:01:01;;;;;;;1.97;1.80;;;15.10;99.90;;;;;;4990266;28;20429;-64
2021/10/04 10:03:30;;;;;;;1.40;1.30;;;15.30;99.90;;;;;;4967242;28;20466;-65
2021/10/04 10:05:58;;;;;;;1.30;1.13;;;15.40;99.90;;;;;;4990130;28;20850;-72
2021/10/04 10:08:26;;;;;;;1.80;1.10;;;15.50;99.90;;;;;;4989816;28;20475;-65
2021/10/04 10:10:54;;;;;;;1.73;1.40;;;15.60;99.90;;;;;;4990335;28;20503;-64
2021/10/04 10:13:22;;;;;;;1.80;1.70;;;15.70;99.90;;;;;;4990484;28;20418;-64
2021/10/04 10:16:09;;;;;;;1.60;1.50;;;15.80;99.90;;;;;;4990163;28;20488;-64
2021/10/04 10:18:52;;;;;;;1.40;1.30;;;16.10;99.90;;;;;;4989752;28;20437;-65
2021/10/04 10:21:20;;;;;;;0.97;0.90;;;16.30;99.90;;;;;;4990861;28;20437;-64
2021/10/04 10:23:53;;;;;;;1.30;1.20;;;16.40;99.90;;;;;;4990185;28;20454;-63
2021/10/04 10:26:45;;;;;;;3.67;2.40;;;16.50;99.90;;;;;;4989705;28;20426;-65
2021/10/04 10:29:16;;;;;;;2.60;2.40;;;16.70;99.90;;;;;;4989659;28;20795;-63
2021/10/04 10:31:48;;;;;;;3.53;2.90;;;16.30;99.90;;;;;;4989900;28;20426;-64
2021/10/04 10:34:29;;;;;;;1.50;1.20;;;16.10;99.90;;;;;;4989952;28;20502;-63
2021/10/04 10:36:59;;;;;;;1.83;1.00;;;16.10;99.90;;;;;;5016048;23;20485;-64
2021/10/04 10:39:43;;;;;;;0.90;0.90;;;16.10;99.90;;;;;;5008373;28;20444;-63
2021/10/04 10:42:31;;;;;;;1.33;0.80;;;16.50;99.90;;;;;;5009443;28;20426;-63
2021/10/04 10:44:56;;;;;;;1.20;1.10;;;16.40;99.90;;;;;;4998470;28;20560;-62
2021/10/04 10:47:37;;;;;;;1.30;1.20;;;16.40;99.90;;;;;;5009032;28;20540;-63
2021/10/04 10:50:14;;;;;;;2.50;1.27;;;16.40;99.90;;;;;;5009023;28;20214;-63
2021/10/04 10:52:43;;;;;;;1.20;0.77;;;16.30;99.90;;;;;;5009172;28;20418;-63
2021/10/04 10:55:18;;;;;;;0.87;0.77;;;16.40;99.90;;;;;;5009284;28;21167;-63
2021/10/04 10:57:55;;;;;;;1.30;1.20;;;16.30;99.90;;;;;;5008977;28;20445;-63
2021/10/04 11:00:28;;;;;;;1.33;1.20;;;16.10;99.90;;;;;;5009000;28;20518;-64
2021/10/04 11:02:55;;;;;;;1.17;1.10;;;15.70;99.90;;;;;;5009220;28;20417;-62
2021/10/04 11:05:39;;;;;;;1.00;1.00;;;15.70;99.90;;;;;;5008978;28;20465;-63
2021/10/04 11:08:17;;;;;;;1.17;0.90;;;16.10;99.90;;;;;;5008554;28;20914;-63
2021/10/04 11:10:49;;;;;;;0.97;0.97;;;16.20;99.90;;;;;;5009068;28;20907;-63
2021/10/04 11:13:35;;;;;;;1.43;0.80;;;16.50;99.90;;;;;;5008992;28;20445;-64
2021/10/04 11:16:04;;;;;;;1.00;1.00;;;16.70;99.90;;;;;;5008995;28;20426;-62
2021/10/04 11:18:47;;;;;;;0.67;0.67;;;17.00;99.90;;;;;;5008606;28;20532;-62
2021/10/04 11:21:23;;;;;;;1.37;1.03;;;17.20;99.90;;;;;;4989375;28;20488;-63
2021/10/04 11:23:56;;;;;;;0.60;0.60;;;17.40;99.90;;;;;;4989263;28;20477;-64
2021/10/04 11:26:23;;;;;;;1.30;0.80;;;17.50;99.90;;;;;;4989367;28;20415;-63
2021/10/04 11:28:55;;;;;;;0.80;0.80;;;17.50;99.90;;;;;;4988986;28;20787;-63
2021/10/04 11:31:23;;;;;;;0.87;0.87;;;17.30;99.90;;;;;;4989398;28;20969;-64
2021/10/04 11:34:00;;;;;;;0.70;0.70;;;17.10;99.90;;;;;;4989105;28;20486;-63
2021/10/04 11:36:37;;;;;;;1.10;1.00;;;16.90;99.90;;;;;;4989169;28;20438;-63
2021/10/04 11:39:06;;;;;;;4.63;3.77;;;17.00;99.90;;;;;;4988557;28;20492;-63
2021/10/04 11:41:36;;;;;;;1.40;1.30;;;16.90;99.90;;;;;;4988817;28;20855;-63
2021/10/04 11:44:05;;;;;;;1.17;1.07;;;16.80;99.90;;;;;;4988973;28;20466;-63
2021/10/04 11:46:34;;;;;;;1.73;1.50;;;16.80;99.90;;;;;;4988938;28;20975;-65
2021/10/04 11:49:04;;;;;;;1.30;1.10;;;16.70;99.90;;;;;;5012519;28;20465;-62
2021/10/04 11:51:30;;;;;;;1.43;1.33;;;16.40;99.90;;;;;;5008632;28;20457;-64
2021/10/04 11:53:56;;;;;;;1.53;1.20;;;16.20;99.90;;;;;;5008579;28;20434;-63
2021/10/04 11:56:23;;;;;;;1.30;1.20;;;16.00;99.90;;;;;;5010550;28;20915;-63
2021/10/04 11:58:54;;;;;;;1.60;1.50;;;15.90;99.90;;;;;;5012100;28;20786;-62
2021/10/04 12:01:46;;;;;;;2.60;1.30;;;15.90;99.90;;;;;;5012230;28;20476;-65
2021/10/04 12:04:14;;;;;;;1.43;1.33;;;16.00;99.90;;;;;;5010900;28;20548;-62
2021/10/04 12:06:42;;;;;;;1.40;1.30;;;16.10;99.90;;;;;;5011729;28;20440;-63
2021/10/04 12:09:18;;;;;;;1.23;1.13;;;16.20;99.90;;;;;;5011696;28;20484;-63
2021/10/04 12:11:58;;;;;;;1.20;1.10;;;16.20;99.90;;;;;;5012224;28;20872;-63
2021/10/04 12:14:26;;;;;;;1.20;1.10;;;16.10;99.90;;;;;;5012006;28;20508;-62
2021/10/04 12:16:58;;;;;;;1.20;0.80;;;16.10;99.90;;;;;;5011788;28;20456;-62
2021/10/04 12:19:23;;;;;;;1.30;1.20;;;16.20;99.90;;;;;;5011595;28;20474;-64
2021/10/04 12:21:50;;;;;;;1.60;1.50;;;16.30;99.90;;;;;;5011955;28;20515;-62
2021/10/04 12:24:16;;;;;;;1.57;1.33;;;16.50;99.90;;;;;;5011883;28;20201;-62
2021/10/04 12:26:48;;;;;;;1.20;1.10;;;16.70;99.90;;;;;;5011852;28;20418;-62
2021/10/04 12:29:33;;;;;;;0.87;0.87;;;16.80;99.90;;;;;;5011512;28;20174;-61
2021/10/04 12:32:20;;;;;;;1.50;1.40;;;16.80;99.90;;;;;;5011727;28;20460;-63
2021/10/04 12:35:22;;;;;;;1.70;1.50;;;16.80;99.90;;;;;;5011795;28;20515;-64
2021/10/04 12:37:56;;;;;;;1.63;1.53;;;17.10;99.90;;;;;;5011189;28;20453;-63
2021/10/04 12:40:41;;;;;;;8.00;1.50;;;17.20;99.90;;;;;;5011550;28;20824;-63
2021/10/04 12:43:21;;;;;;;2.40;1.53;;;17.00;99.90;;;;;;5011613;28;20448;-63
2021/10/04 12:45:57;;;;;;;1.23;1.13;;;17.20;99.90;;;;;;5011290;28;20421;-62
2021/10/04 12:48:25;;;;;;;1.60;1.50;;;17.80;99.90;;;;;;5011031;28;20531;-63
2021/10/04 12:51:10;;;;;;;1.20;1.10;;;17.90;99.90;;;;;;5011135;28;20436;-64
2021/10/04 12:53:56;;;;;;;1.57;1.47;;;18.10;99.90;;;;;;5011398;28;20433;-63